createdAt,value
2023-01-30T00:01:16.611Z,98620.78
2023-01-30T00:03:43.332Z,98610.53
2023-01-30T00:06:10.974Z,98607.69
2023-01-30T00:08:37.513Z,98622.47
2023-01-30T00:11:10.117Z,98614.94
2023-01-30T00:13:37.602Z,98621.84
2023-01-30T00:16:04.540Z,98623.94
2023-01-30T00:18:31.601Z,98593.94
2023-01-30T00:21:00.281Z,98575.22
2023-01-30T00:23:28.335Z,98579.34
2023-01-30T00:25:55.371Z,98570.72
2023-01-30T00:28:22.993Z,98561.69
2023-01-30T00:30:53.929Z,98544.22
2023-01-30T00:33:23.367Z,98552.91
2023-01-30T00:35:51.492Z,98547.03
2023-01-30T00:38:18.765Z,98541.09
2023-01-30T00:40:46.395Z,98546.31
2023-01-30T00:43:33.375Z,98538.88
2023-01-30T00:46:20.953Z,98532.75
2023-01-30T00:48:47.614Z,98543.69
2023-01-30T00:51:14.315Z,98534.50
2023-01-30T00:53:41.056Z,98520.66
2023-01-30T00:56:07.838Z,98504.53
2023-01-30T00:58:34.522Z,98495.78
2023-01-30T01:01:01.093Z,98497.34
2023-01-30T01:03:27.699Z,98472.00
2023-01-30T01:05:54.271Z,98443.69
2023-01-30T01:08:22.781Z,98446.22
2023-01-30T01:10:49.397Z,98442.94
2023-01-30T01:13:16.123Z,98443.25
2023-01-30T01:15:42.694Z,98431.31
2023-01-30T01:18:09.335Z,98443.31
2023-01-30T01:20:36.063Z,98448.53
2023-01-30T01:23:02.661Z,98429.38
2023-01-30T01:25:29.534Z,98437.31
2023-01-30T01:27:56.407Z,98432.69
2023-01-30T01:30:23.354Z,98396.56
2023-01-30T01:32:50.202Z,98404.28
2023-01-30T01:35:17.218Z,98379.22
2023-01-30T01:37:44.005Z,98362.97
2023-01-30T01:40:36.716Z,98396.66
2023-01-30T01:43:14.931Z,98417.09
2023-01-30T01:45:42.269Z,98440.44
2023-01-30T01:48:16.027Z,98442.19
2023-01-30T01:51:01.574Z,98456.06
2023-01-30T01:53:35.092Z,98445.91
2023-01-30T01:56:03.365Z,98433.19
2023-01-30T01:58:39.822Z,98432.47
2023-01-30T02:01:07.312Z,98426.53
2023-01-30T02:03:39.843Z,98422.25
2023-01-30T02:06:07.699Z,98426.66
2023-01-30T02:08:40.055Z,98421.47
2023-01-30T02:11:09.792Z,98425.00
2023-01-30T02:13:36.864Z,98411.34
2023-01-30T02:16:06.554Z,98404.38
2023-01-30T02:18:35.970Z,98390.59
2023-01-30T02:21:51.323Z,98397.50
2023-01-30T02:24:34.686Z,98384.53
2023-01-30T02:27:20.258Z,98374.97
2023-01-30T02:30:08.956Z,98368.16
2023-01-30T02:33:00.786Z,98367.19
2023-01-30T02:35:46.622Z,98362.13
2023-01-30T02:38:17.675Z,98354.50
2023-01-30T02:41:02.296Z,98349.41
2023-01-30T02:43:36.452Z,98329.63
2023-01-30T02:46:12.926Z,98322.72
2023-01-30T02:48:47.765Z,98307.31
2023-01-30T02:51:20.298Z,98305.56
2023-01-30T02:53:48.699Z,98306.53
2023-01-30T02:56:15.496Z,98302.22
2023-01-30T02:58:48.945Z,98301.56
2023-01-30T03:01:49.982Z,98291.22
2023-01-30T03:04:58.702Z,98306.72
2023-01-30T03:07:37.278Z,98307.69
2023-01-30T03:10:17.018Z,98298.31
2023-01-30T03:12:59.477Z,98281.91
2023-01-30T03:15:26.585Z,98294.06
2023-01-30T03:17:54.896Z,98285.44
2023-01-30T03:20:21.729Z,98265.50
2023-01-30T03:22:48.772Z,98246.53
2023-01-30T03:25:20.439Z,98250.13
2023-01-30T03:27:48.025Z,98250.06
2023-01-30T03:30:14.866Z,98243.16
2023-01-30T03:32:41.574Z,98240.59
2023-01-30T03:35:08.537Z,98234.53
2023-01-30T03:37:35.659Z,98224.19
2023-01-30T03:40:02.654Z,98209.53
2023-01-30T03:42:29.557Z,98199.19
2023-01-30T03:44:56.374Z,98204.28
2023-01-30T03:47:23.037Z,98194.94
2023-01-30T03:49:49.680Z,98180.25
2023-01-30T03:52:16.234Z,98182.81
2023-01-30T03:54:42.854Z,98163.00
2023-01-30T03:57:09.419Z,98161.31
2023-01-30T03:59:36.128Z,98165.59
2023-01-30T04:02:02.821Z,98181.09
2023-01-30T04:04:29.463Z,98163.88
2023-01-30T04:06:56.047Z,98166.50
2023-01-30T04:09:22.787Z,98171.75
2023-01-30T04:11:49.695Z,98178.66
2023-01-30T04:14:16.297Z,98189.06
2023-01-30T04:16:42.971Z,98182.19
2023-01-30T04:19:09.617Z,98165.84
2023-01-30T04:21:36.304Z,98163.28
2023-01-30T04:24:02.816Z,98137.38
2023-01-30T04:26:29.435Z,98152.88
2023-01-30T04:28:55.968Z,98158.06
2023-01-30T04:31:22.603Z,98160.75
2023-01-30T04:33:49.276Z,98154.66
2023-01-30T04:36:16.019Z,98139.16
2023-01-30T04:38:42.765Z,98129.66
2023-01-30T04:41:09.338Z,98108.84
2023-01-30T04:43:35.926Z,98112.38
2023-01-30T04:46:02.641Z,98091.66
2023-01-30T04:48:29.368Z,98085.63
2023-01-30T04:50:57.049Z,98103.75
2023-01-30T04:53:24.449Z,98089.94
2023-01-30T04:55:51.131Z,98092.53
2023-01-30T04:58:19.872Z,98084.78
2023-01-30T05:00:47.549Z,98077.03
2023-01-30T05:03:15.218Z,98068.38
2023-01-30T05:05:42.118Z,98068.34
2023-01-30T05:08:08.963Z,98056.25
2023-01-30T05:10:35.651Z,98054.56
2023-01-30T05:13:06.220Z,98066.66
2023-01-30T05:15:33.716Z,98064.06
2023-01-30T05:18:00.534Z,98048.53
2023-01-30T05:20:27.259Z,98047.66
2023-01-30T05:22:54.041Z,98046.78
2023-01-30T05:25:20.896Z,98043.34
2023-01-30T05:27:47.591Z,98062.31
2023-01-30T05:30:14.395Z,98083.03
2023-01-30T05:32:41.190Z,98076.09
2023-01-30T05:35:08.170Z,98067.50
2023-01-30T05:37:34.681Z,98055.41
2023-01-30T05:40:01.278Z,98055.38
2023-01-30T05:42:27.830Z,98048.50
2023-01-30T05:44:54.509Z,98050.22
2023-01-30T05:47:21.188Z,98041.59
2023-01-30T05:49:47.951Z,98047.66
2023-01-30T05:52:14.562Z,98035.56
2023-01-30T05:54:41.156Z,98030.38
2023-01-30T05:57:07.833Z,98031.25
2023-01-30T05:59:34.673Z,98021.75
2023-01-30T06:02:01.453Z,98014.84
2023-01-30T06:04:28.093Z,98006.19
2023-01-30T06:06:54.688Z,98007.94
2023-01-30T06:09:21.251Z,98003.63
2023-01-30T06:11:48.293Z,98011.44
2023-01-30T06:14:15.085Z,97997.59
2023-01-30T06:16:41.732Z,98004.50
2023-01-30T06:19:09.249Z,98001.03
2023-01-30T06:21:35.803Z,98006.25
2023-01-30T06:24:02.618Z,98020.94
2023-01-30T06:26:29.447Z,98005.38
2023-01-30T06:28:56.131Z,98012.28
2023-01-30T06:31:22.820Z,98012.31
2023-01-30T06:33:49.628Z,98020.09
2023-01-30T06:36:16.352Z,97997.63
2023-01-30T06:38:42.943Z,97994.19
2023-01-30T06:41:09.743Z,97981.22
2023-01-30T06:43:36.360Z,98001.97
2023-01-30T06:46:03.089Z,98016.63
2023-01-30T06:48:29.720Z,98012.31
2023-01-30T06:50:56.497Z,98017.53
2023-01-30T06:53:25.615Z,98018.38
2023-01-30T06:55:52.257Z,98008.88
2023-01-30T06:58:19.050Z,98033.94
2023-01-30T07:00:45.763Z,98018.38
2023-01-30T07:03:14.755Z,98017.53
2023-01-30T07:05:43.083Z,98006.28
2023-01-30T07:08:10.409Z,98006.28
2023-01-30T07:10:37.573Z,98014.91
2023-01-30T07:13:05.084Z,98019.22
2023-01-30T07:15:32.598Z,98008.00
2023-01-30T07:17:59.387Z,98024.41
2023-01-30T07:20:26.317Z,98017.50
2023-01-30T07:22:54.709Z,98022.69
2023-01-30T07:25:23.534Z,98023.56
2023-01-30T07:27:55.041Z,98019.22
2023-01-30T07:30:21.879Z,98019.22
2023-01-30T07:32:57.944Z,98000.22
2023-01-30T07:35:27.166Z,98005.41
2023-01-30T07:37:54.132Z,98004.53
2023-01-30T07:40:21.976Z,97993.31
2023-01-30T07:42:58.772Z,97977.78
2023-01-30T07:45:25.950Z,97982.09
2023-01-30T07:47:53.770Z,97997.66
2023-01-30T07:50:20.802Z,97990.72
2023-01-30T07:52:47.686Z,97996.78
2023-01-30T07:55:14.465Z,98002.84
2023-01-30T07:57:41.454Z,97992.47
2023-01-30T08:00:10.936Z,97995.09
2023-01-30T08:02:37.694Z,97984.69
2023-01-30T08:05:06.184Z,98004.59
2023-01-30T08:07:33.030Z,97980.38
2023-01-30T08:09:59.931Z,97989.91
2023-01-30T08:12:26.737Z,97982.97
2023-01-30T08:14:53.567Z,97984.72
2023-01-30T08:17:20.165Z,97998.53
2023-01-30T08:19:46.673Z,97991.63
2023-01-30T08:22:13.994Z,97999.44
2023-01-30T08:24:40.691Z,97996.84
2023-01-30T08:27:07.253Z,97999.41
2023-01-30T08:29:34.000Z,97991.63
2023-01-30T08:32:00.851Z,97995.97
2023-01-30T08:34:27.902Z,97999.41
2023-01-30T08:36:54.595Z,98012.38
2023-01-30T08:39:21.424Z,98019.28
2023-01-30T08:41:48.144Z,98026.22
2023-01-30T08:44:14.919Z,98026.25
2023-01-30T08:46:41.761Z,98032.28
2023-01-30T08:49:08.511Z,98019.28
2023-01-30T08:51:35.329Z,98010.69
2023-01-30T08:54:02.055Z,97998.56
2023-01-30T08:56:28.668Z,98015.00
2023-01-30T08:58:55.484Z,98011.53
2023-01-30T09:01:22.175Z,98023.63
2023-01-30T09:03:48.863Z,98019.28
2023-01-30T09:06:15.532Z,98014.09
2023-01-30T09:08:42.865Z,98014.09
2023-01-30T09:11:11.485Z,98022.72
2023-01-30T09:13:43.437Z,98006.28
2023-01-30T09:16:11.493Z,98002.81
2023-01-30T09:18:40.679Z,97984.66
2023-01-30T09:21:10.049Z,97992.44
2023-01-30T09:23:37.382Z,98008.91
2023-01-30T09:26:05.046Z,97994.19
2023-01-30T09:28:32.763Z,97989.88
2023-01-30T09:31:01.168Z,97963.94
2023-01-30T09:33:28.553Z,97968.25
2023-01-30T09:35:56.173Z,97986.41
2023-01-30T09:38:23.025Z,97971.66
2023-01-30T09:41:04.582Z,97976.88
2023-01-30T09:44:18.942Z,97980.34
2023-01-30T09:47:19.390Z,97986.41
2023-01-30T09:50:12.079Z,97994.19
2023-01-30T09:52:56.552Z,97988.13
2023-01-30T09:55:29.490Z,98009.78
2023-01-30T09:57:58.766Z,98005.44
2023-01-30T10:00:25.826Z,98006.31
2023-01-30T10:03:02.214Z,98014.09
2023-01-30T10:05:37.624Z,98014.97
2023-01-30T10:08:38.922Z,98031.41
2023-01-30T10:11:51.051Z,98042.66
2023-01-30T10:14:18.045Z,98047.84
2023-01-30T10:16:58.891Z,98047.84
2023-01-30T10:19:48.323Z,98057.38
2023-01-30T10:22:36.720Z,98060.84
2023-01-30T10:25:12.675Z,98043.53
2023-01-30T10:27:47.264Z,98050.44
2023-01-30T10:30:16.664Z,98053.88
2023-01-30T10:33:00.172Z,98046.09
2023-01-30T10:35:32.497Z,98071.19
2023-01-30T10:38:13.089Z,98071.19
2023-01-30T10:40:44.696Z,98066.00
2023-01-30T10:43:28.471Z,98070.34
2023-01-30T10:46:15.549Z,98076.38
2023-01-30T10:48:57.268Z,98039.22
2023-01-30T10:51:47.130Z,98061.69
2023-01-30T10:54:20.738Z,98052.16
2023-01-30T10:56:54.859Z,98052.16
2023-01-30T10:59:28.991Z,98048.72
2023-01-30T11:02:00.358Z,98044.38
2023-01-30T11:04:44.556Z,98048.72
2023-01-30T11:07:12.709Z,98050.44
2023-01-30T11:09:45.076Z,98034.88
2023-01-30T11:12:12.965Z,98030.53
2023-01-30T11:14:53.261Z,98028.81
2023-01-30T11:17:22.528Z,98039.22
2023-01-30T11:19:57.454Z,98034.88
2023-01-30T11:22:27.250Z,98031.44
2023-01-30T11:25:14.094Z,98022.78
2023-01-30T11:27:44.799Z,98022.75
2023-01-30T11:30:14.964Z,98008.06
2023-01-30T11:32:44.034Z,97997.66
2023-01-30T11:35:10.645Z,97992.47
2023-01-30T11:37:40.270Z,97992.47
2023-01-30T11:40:19.883Z,97989.03
2023-01-30T11:42:51.575Z,97989.91
2023-01-30T11:45:19.435Z,97986.44
2023-01-30T11:48:02.291Z,97995.09
2023-01-30T11:50:42.544Z,97983.84
2023-01-30T11:53:40.717Z,97968.28
2023-01-30T11:56:14.947Z,97970.88
2023-01-30T11:58:46.510Z,97956.13
2023-01-30T12:01:15.251Z,97961.28
2023-01-30T12:03:53.677Z,97958.66
2023-01-30T12:06:28.732Z,97961.16
2023-01-30T12:08:56.319Z,97960.28
2023-01-30T12:11:45.413Z,97963.75
2023-01-30T12:14:40.410Z,97944.72
2023-01-30T12:17:21.599Z,97945.66
2023-01-30T12:20:01.870Z,97950.03
2023-01-30T12:22:49.765Z,97958.69
2023-01-30T12:25:25.473Z,97960.41
2023-01-30T12:28:13.607Z,97957.78
2023-01-30T12:30:51.662Z,97944.81
2023-01-30T12:33:19.656Z,97946.56
2023-01-30T12:36:05.140Z,97956.06
2023-01-30T12:39:14.096Z,97969.91
2023-01-30T12:41:46.852Z,97964.69
2023-01-30T12:44:35.416Z,97965.59
2023-01-30T12:47:19.493Z,97963.84
2023-01-30T12:50:04.426Z,97971.59
2023-01-30T12:53:08.944Z,97977.63
2023-01-30T12:55:44.486Z,97951.72
2023-01-30T12:58:39.003Z,97943.94
2023-01-30T13:01:29.873Z,97941.38
2023-01-30T13:05:01.690Z,97932.72
2023-01-30T13:07:51.923Z,97928.34
2023-01-30T13:10:27.613Z,97942.22
2023-01-30T13:13:06.935Z,97942.22
2023-01-30T13:16:04.727Z,97953.50
2023-01-30T13:18:46.853Z,97947.44
2023-01-30T13:21:19.781Z,97933.59
2023-01-30T13:24:04.857Z,97939.59
2023-01-30T13:26:36.531Z,97931.75
2023-01-30T13:29:14.859Z,97935.22
2023-01-30T13:31:52.844Z,97944.72
2023-01-30T13:34:31.611Z,97943.03
2023-01-30T13:37:19.174Z,97956.91
2023-01-30T13:39:55.222Z,97962.06
2023-01-30T13:42:32.829Z,97954.25
2023-01-30T13:45:01.299Z,97950.81
2023-01-30T13:47:36.771Z,97951.69
2023-01-30T13:50:16.033Z,97948.22
2023-01-30T13:53:04.530Z,97950.84
2023-01-30T13:56:39.583Z,97952.59
2023-01-30T13:59:12.962Z,97943.09
2023-01-30T14:02:06.711Z,97971.69
2023-01-30T14:04:42.465Z,97990.69
2023-01-30T14:07:16.439Z,97985.47
2023-01-30T14:10:03.241Z,97967.28
2023-01-30T14:12:37.728Z,97974.19
2023-01-30T14:15:24.373Z,97984.63
2023-01-30T14:18:07.884Z,97979.41
2023-01-30T14:20:37.725Z,97981.13
2023-01-30T14:23:23.305Z,97979.44
2023-01-30T14:25:56.730Z,97976.03
2023-01-30T14:28:29.549Z,97973.41
2023-01-30T14:30:59.261Z,97974.22
2023-01-30T14:33:25.781Z,97993.31
2023-01-30T14:35:58.605Z,98003.69
2023-01-30T14:38:28.943Z,98009.72
2023-01-30T14:40:58.671Z,97998.47
2023-01-30T14:43:25.215Z,98007.09
2023-01-30T14:45:53.343Z,98008.84
2023-01-30T14:48:37.620Z,98014.00
2023-01-30T14:51:25.688Z,98015.72
2023-01-30T14:53:58.862Z,98010.53
2023-01-30T14:56:51.571Z,98021.75
2023-01-30T14:59:21.099Z,98032.16
2023-01-30T15:02:01.523Z,98034.69
2023-01-30T15:04:34.302Z,98050.25
2023-01-30T15:07:11.981Z,98045.09
2023-01-30T15:09:45.024Z,98052.88
2023-01-30T15:12:50.891Z,98067.59
2023-01-30T15:15:39.461Z,98080.56
2023-01-30T15:18:20.540Z,98084.06
2023-01-30T15:21:15.210Z,98098.78
2023-01-30T15:24:20.033Z,98103.97
2023-01-30T15:27:07.478Z,98107.47
2023-01-30T15:30:02.655Z,98112.69
2023-01-30T15:32:31.041Z,98110.94
2023-01-30T15:35:12.660Z,98118.72
2023-01-30T15:37:48.215Z,98131.72
2023-01-30T15:40:14.864Z,98131.72
2023-01-30T15:42:57.625Z,98133.44
2023-01-30T15:45:34.927Z,98129.09
2023-01-30T15:48:27.991Z,98136.94
2023-01-30T15:50:58.093Z,98142.13
2023-01-30T15:53:31.448Z,98144.75
2023-01-30T15:56:01.832Z,98168.97
2023-01-30T15:58:30.554Z,98161.19
2023-01-30T16:01:00.161Z,98166.41
2023-01-30T16:03:36.880Z,98173.31
2023-01-30T16:06:04.015Z,98185.44
2023-01-30T16:08:33.040Z,98190.63
2023-01-30T16:11:00.866Z,98202.75
2023-01-30T16:13:28.945Z,98200.16
2023-01-30T16:16:14.342Z,98211.44
2023-01-30T16:19:02.736Z,98211.44
2023-01-30T16:21:34.625Z,98207.97
2023-01-30T16:24:33.325Z,98218.38
2023-01-30T16:27:06.606Z,98231.31
2023-01-30T16:29:43.451Z,98242.59
2023-01-30T16:32:16.261Z,98251.25
2023-01-30T16:34:43.483Z,98254.69
2023-01-30T16:37:19.084Z,98273.72
2023-01-30T16:39:46.682Z,98267.66
2023-01-30T16:42:24.279Z,98278.00
2023-01-30T16:44:51.017Z,98288.38
2023-01-30T16:47:25.761Z,98280.59
2023-01-30T16:49:54.827Z,98285.78
2023-01-30T16:52:31.562Z,98278.84
2023-01-30T16:55:02.346Z,98287.53
2023-01-30T16:57:37.757Z,98286.69
2023-01-30T17:00:10.083Z,98299.66
2023-01-30T17:02:41.110Z,98297.09
2023-01-30T17:05:20.053Z,98284.97
2023-01-30T17:07:48.406Z,98289.31
2023-01-30T17:10:42.252Z,98295.34
2023-01-30T17:13:30.335Z,98296.19
2023-01-30T17:16:21.725Z,98305.69
2023-01-30T17:18:49.085Z,98310.03
2023-01-30T17:21:16.717Z,98316.09
2023-01-30T17:23:46.861Z,98330.78
2023-01-30T17:26:15.811Z,98310.00
2023-01-30T17:28:42.641Z,98330.78
2023-01-30T17:31:13.239Z,98331.59
2023-01-30T17:33:40.158Z,98335.03
2023-01-30T17:36:13.399Z,98332.47
2023-01-30T17:38:40.059Z,98332.44
2023-01-30T17:41:09.987Z,98338.50
2023-01-30T17:43:36.651Z,98337.63
2023-01-30T17:46:03.373Z,98347.97
2023-01-30T17:48:29.960Z,98351.47
2023-01-30T17:50:56.506Z,98353.19
2023-01-30T17:53:23.216Z,98356.66
2023-01-30T17:55:49.998Z,98359.25
2023-01-30T17:58:17.670Z,98372.22
2023-01-30T18:00:44.351Z,98362.66
2023-01-30T18:03:10.935Z,98378.28
2023-01-30T18:05:37.546Z,98382.56
2023-01-30T18:08:04.091Z,98384.28
2023-01-30T18:10:30.737Z,98401.59
2023-01-30T18:12:57.485Z,98390.34
2023-01-30T18:15:24.360Z,98399.81
2023-01-30T18:17:51.678Z,98396.44
2023-01-30T18:20:20.360Z,98421.53
2023-01-30T18:22:47.307Z,98408.66
2023-01-30T18:25:15.150Z,98420.75
2023-01-30T18:27:44.270Z,98422.50
2023-01-30T18:30:15.097Z,98416.44
2023-01-30T18:32:52.056Z,98433.69
2023-01-30T18:35:19.937Z,98438.88
2023-01-30T18:37:46.496Z,98430.19
2023-01-30T18:40:15.214Z,98438.06
2023-01-30T18:42:41.954Z,98432.81
2023-01-30T18:45:08.966Z,98436.25
2023-01-30T18:47:35.791Z,98438.03
2023-01-30T18:50:02.570Z,98442.34
2023-01-30T18:52:29.168Z,98443.25
2023-01-30T18:54:55.971Z,98439.81
2023-01-30T18:57:22.629Z,98446.72
2023-01-30T18:59:49.217Z,98450.19
2023-01-30T19:02:16.024Z,98443.25
2023-01-30T19:04:42.670Z,98449.31
2023-01-30T19:07:09.339Z,98454.50
2023-01-30T19:09:36.030Z,98458.84
2023-01-30T19:12:21.229Z,98458.88
2023-01-30T19:14:47.901Z,98462.25
2023-01-30T19:17:16.618Z,98468.38
2023-01-30T19:19:43.604Z,98474.47
2023-01-30T19:22:10.232Z,98477.88
2023-01-30T19:24:36.979Z,98491.78
2023-01-30T19:27:07.813Z,98495.22
2023-01-30T19:29:34.528Z,98506.50
2023-01-30T19:32:01.755Z,98499.56
2023-01-30T19:34:28.667Z,98503.88
2023-01-30T19:36:55.332Z,98500.44
2023-01-30T19:39:22.016Z,98516.00
2023-01-30T19:41:48.556Z,98513.47
2023-01-30T19:44:15.286Z,98519.47
2023-01-30T19:46:42.003Z,98516.94
2023-01-30T19:49:11.461Z,98533.41
2023-01-30T19:51:38.076Z,98535.16
2023-01-30T19:54:07.267Z,98536.88
2023-01-30T19:56:34.323Z,98535.09
2023-01-30T19:59:01.927Z,98535.09
2023-01-30T20:01:32.979Z,98530.75
2023-01-30T20:04:02.347Z,98538.66
2023-01-30T20:06:32.003Z,98542.03
2023-01-30T20:09:01.516Z,98548.06
2023-01-30T20:11:29.666Z,98548.03
2023-01-30T20:13:56.713Z,98548.88
2023-01-30T20:16:27.490Z,98542.03
2023-01-30T20:18:59.452Z,98549.81
2023-01-30T20:21:27.124Z,98554.19
2023-01-30T20:23:53.849Z,98543.75
2023-01-30T20:26:25.982Z,98548.09
2023-01-30T20:28:55.037Z,98542.94
2023-01-30T20:31:24.108Z,98553.34
2023-01-30T20:33:51.374Z,98561.13
2023-01-30T20:36:19.934Z,98554.19
2023-01-30T20:38:48.565Z,98558.53
2023-01-30T20:41:17.955Z,98562.91
2023-01-30T20:43:47.050Z,98577.56
2023-01-30T20:46:19.590Z,98580.97
2023-01-30T20:48:46.663Z,98585.38
2023-01-30T20:51:16.707Z,98577.63
2023-01-30T20:53:51.895Z,98583.63
2023-01-30T20:56:20.209Z,98592.28
2023-01-30T20:58:46.860Z,98587.97
2023-01-30T21:01:17.999Z,98593.16
2023-01-30T21:03:46.396Z,98600.88
2023-01-30T21:06:13.090Z,98612.16
2023-01-30T21:08:40.541Z,98611.25
2023-01-30T21:11:13.630Z,98612.13
2023-01-30T21:13:41.201Z,98613.00
2023-01-30T21:16:17.612Z,98614.78
2023-01-30T21:18:47.060Z,98613.88
2023-01-30T21:21:20.621Z,98610.47
2023-01-30T21:23:48.043Z,98619.06
2023-01-30T21:26:16.477Z,98632.91
2023-01-30T21:28:43.470Z,98636.38
2023-01-30T21:31:19.958Z,98644.16
2023-01-30T21:33:48.217Z,98648.56
2023-01-30T21:36:17.072Z,98644.28
2023-01-30T21:39:03.026Z,98644.22
2023-01-30T21:41:54.315Z,98658.13
2023-01-30T21:44:25.938Z,98670.97
2023-01-30T21:46:52.683Z,98683.91
2023-01-30T21:49:19.765Z,98691.69
2023-01-30T21:51:48.119Z,98685.69
2023-01-30T21:54:16.472Z,98685.63
2023-01-30T21:56:43.876Z,98685.69
2023-01-30T21:59:11.003Z,98689.16
2023-01-30T22:01:38.811Z,98695.25
2023-01-30T22:04:11.874Z,98698.72
2023-01-30T22:06:38.973Z,98697.03
2023-01-30T22:09:06.273Z,98699.63
2023-01-30T22:11:35.647Z,98692.72
2023-01-30T22:14:03.960Z,98692.56
2023-01-30T22:16:30.752Z,98683.91
2023-01-30T22:19:00.357Z,98695.09
2023-01-30T22:21:29.998Z,98692.47
2023-01-30T22:23:56.633Z,98689.78
2023-01-30T22:26:24.718Z,98689.81
2023-01-30T22:28:59.383Z,98690.72
2023-01-30T22:31:28.635Z,98701.09
2023-01-30T22:33:56.708Z,98704.56
2023-01-30T22:36:25.829Z,98716.78
2023-01-30T22:38:52.982Z,98711.59
2023-01-30T22:41:24.815Z,98707.25
2023-01-30T22:43:55.493Z,98713.34
2023-01-30T22:46:28.431Z,98709.00
2023-01-30T22:48:55.216Z,98709.00
2023-01-30T22:51:24.256Z,98717.56
2023-01-30T22:53:53.778Z,98713.25
2023-01-30T22:56:34.175Z,98721.88
2023-01-30T22:59:01.031Z,98724.50
2023-01-30T23:01:35.948Z,98726.31
2023-01-30T23:04:06.115Z,98740.19
2023-01-30T23:06:33.697Z,98739.28
2023-01-30T23:09:00.851Z,98738.41
2023-01-30T23:11:34.790Z,98747.94
2023-01-30T23:14:13.435Z,98756.50
2023-01-30T23:16:42.769Z,98759.97
2023-01-30T23:19:11.503Z,98767.84
2023-01-30T23:21:40.896Z,98760.06
2023-01-30T23:24:13.208Z,98749.56
2023-01-30T23:26:43.894Z,98740.91
2023-01-30T23:29:13.364Z,98749.50
2023-01-30T23:31:41.112Z,98758.13
2023-01-30T23:34:11.814Z,98751.28
2023-01-30T23:36:38.862Z,98761.69
2023-01-30T23:39:05.596Z,98766.78
2023-01-30T23:41:33.925Z,98761.59
2023-01-30T23:44:01.040Z,98761.50
2023-01-30T23:46:47.909Z,98761.53
2023-01-30T23:49:14.991Z,98768.34
2023-01-30T23:51:44.227Z,98761.44
2023-01-30T23:54:12.398Z,98757.16
2023-01-30T23:56:42.043Z,98749.25
2023-01-30T23:59:09.072Z,98757.13
